createdAt,value
2023-06-21T00:00:02.414Z,97385.06
2023-06-21T00:02:29.939Z,97385.22
2023-06-21T00:04:57.087Z,97371.47
2023-06-21T00:07:25.339Z,97373.47
2023-06-21T00:09:53.745Z,97389.00
2023-06-21T00:12:21.778Z,97389.19
2023-06-21T00:14:48.816Z,97388.50
2023-06-21T00:17:15.837Z,97388.19
2023-06-21T00:19:42.702Z,97391.16
2023-06-21T00:22:09.705Z,97388.03
2023-06-21T00:24:37.683Z,97389.00
2023-06-21T00:27:04.632Z,97389.69
2023-06-21T00:29:31.465Z,97386.34
2023-06-21T00:31:59.791Z,97385.34
2023-06-21T00:34:26.628Z,97384.34
2023-06-21T00:36:54.160Z,97381.69
2023-06-21T00:39:21.590Z,97381.38
2023-06-21T00:41:49.302Z,97378.38
2023-06-21T00:44:15.951Z,97375.56
2023-06-21T00:46:43.229Z,97386.31
2023-06-21T00:49:10.882Z,97383.63
2023-06-21T00:51:39.631Z,97380.31
2023-06-21T00:54:10.395Z,97382.59
2023-06-21T00:56:37.494Z,97375.03
2023-06-21T00:59:05.877Z,97377.00
2023-06-21T01:01:35.619Z,97377.81
2023-06-21T01:04:02.873Z,97384.59
2023-06-21T01:06:49.312Z,97375.16
2023-06-21T01:09:54.618Z,97382.28
2023-06-21T01:12:38.585Z,97382.91
2023-06-21T01:15:11.871Z,97384.59
2023-06-21T01:17:41.581Z,97384.09
2023-06-21T01:20:20.177Z,97389.06
2023-06-21T01:22:53.352Z,97383.28
2023-06-21T01:26:04.891Z,97398.16
2023-06-21T01:28:54.934Z,97387.19
2023-06-21T01:31:24.472Z,97383.66
2023-06-21T01:33:52.740Z,97388.81
2023-06-21T01:36:19.811Z,97392.13
2023-06-21T01:38:46.788Z,97389.44
2023-06-21T01:41:13.974Z,97384.81
2023-06-21T01:43:41.357Z,97393.09
2023-06-21T01:46:11.990Z,97399.72
2023-06-21T01:48:39.686Z,97386.81
2023-06-21T01:51:09.381Z,97399.03
2023-06-21T01:53:37.625Z,97395.75
2023-06-21T01:56:09.941Z,97395.09
2023-06-21T01:58:36.933Z,97396.78
2023-06-21T02:01:05.117Z,97392.41
2023-06-21T02:03:33.109Z,97397.19
2023-06-21T02:06:08.722Z,97393.19
2023-06-21T02:08:37.355Z,97400.31
2023-06-21T02:11:04.984Z,97401.84
2023-06-21T02:13:32.158Z,97398.19
2023-06-21T02:15:58.947Z,97393.88
2023-06-21T02:18:28.785Z,97407.56
2023-06-21T02:20:55.808Z,97403.44
2023-06-21T02:23:22.578Z,97396.78
2023-06-21T02:25:49.545Z,97405.09
2023-06-21T02:28:17.951Z,97398.59
2023-06-21T02:30:44.807Z,97404.06
2023-06-21T02:33:12.462Z,97410.03
2023-06-21T02:35:39.549Z,97404.06
2023-06-21T02:38:06.646Z,97412.16
2023-06-21T02:40:34.501Z,97404.91
2023-06-21T02:43:01.133Z,97408.84
2023-06-21T02:45:28.142Z,97406.03
2023-06-21T02:47:54.975Z,97411.66
2023-06-21T02:50:21.794Z,97410.81
2023-06-21T02:52:50.902Z,97413.63
2023-06-21T02:55:18.045Z,97421.38
2023-06-21T02:57:45.952Z,97419.25
2023-06-21T03:00:21.059Z,97416.63
2023-06-21T03:02:47.958Z,97416.75
2023-06-21T03:05:15.187Z,97420.06
2023-06-21T03:07:48.115Z,97418.75
2023-06-21T03:10:16.024Z,97417.78
2023-06-21T03:12:44.644Z,97417.63
2023-06-21T03:15:12.368Z,97422.44
2023-06-21T03:17:40.871Z,97425.75
2023-06-21T03:20:15.425Z,97417.97
2023-06-21T03:22:43.114Z,97432.09
2023-06-21T03:25:11.560Z,97424.50
2023-06-21T03:27:38.866Z,97437.72
2023-06-21T03:30:08.023Z,97439.75
2023-06-21T03:32:34.923Z,97437.97
2023-06-21T03:35:01.879Z,97440.84
2023-06-21T03:37:29.076Z,97437.38
2023-06-21T03:39:55.970Z,97442.88
2023-06-21T03:42:22.964Z,97442.22
2023-06-21T03:44:50.091Z,97440.97
2023-06-21T03:47:16.981Z,97436.38
2023-06-21T03:49:44.228Z,97436.72
2023-06-21T03:52:11.180Z,97442.72
2023-06-21T03:54:37.976Z,97430.47
2023-06-21T03:57:04.992Z,97429.50
2023-06-21T03:59:31.762Z,97439.50
2023-06-21T04:01:58.557Z,97432.50
2023-06-21T04:04:25.385Z,97427.78
2023-06-21T04:06:53.244Z,97421.72
2023-06-21T04:09:21.382Z,97419.50
2023-06-21T04:11:48.128Z,97421.22
2023-06-21T04:14:16.669Z,97418.03
2023-06-21T04:16:44.392Z,97411.16
2023-06-21T04:19:11.077Z,97418.88
2023-06-21T04:21:38.029Z,97421.94
2023-06-21T04:24:05.272Z,97419.22
2023-06-21T04:26:32.309Z,97422.59
2023-06-21T04:29:02.398Z,97416.59
2023-06-21T04:31:30.185Z,97417.22
2023-06-21T04:33:57.186Z,97418.44
2023-06-21T04:36:26.013Z,97422.69
2023-06-21T04:38:52.823Z,97422.09
2023-06-21T04:41:20.526Z,97421.25
2023-06-21T04:43:47.380Z,97418.34
2023-06-21T04:46:15.224Z,97418.22
2023-06-21T04:48:42.512Z,97418.50
2023-06-21T04:51:09.307Z,97419.38
2023-06-21T04:53:36.164Z,97416.34
2023-06-21T04:56:03.078Z,97405.41
2023-06-21T04:58:36.767Z,97408.72
2023-06-21T05:01:04.016Z,97417.78
2023-06-21T05:03:34.188Z,97418.16
2023-06-21T05:06:02.221Z,97421.81
2023-06-21T05:08:29.548Z,97417.81
2023-06-21T05:10:56.850Z,97418.81
2023-06-21T05:13:23.697Z,97408.56
2023-06-21T05:15:50.652Z,97413.66
2023-06-21T05:18:17.889Z,97421.44
2023-06-21T05:20:44.611Z,97418.47
2023-06-21T05:23:18.752Z,97423.47
2023-06-21T05:25:45.649Z,97429.13
2023-06-21T05:28:12.422Z,97423.78
2023-06-21T05:30:39.512Z,97426.59
2023-06-21T05:33:06.599Z,97422.28
2023-06-21T05:35:36.445Z,97415.50
2023-06-21T05:38:03.470Z,97421.09
2023-06-21T05:40:30.554Z,97418.16
2023-06-21T05:43:02.463Z,97422.00
2023-06-21T05:45:30.391Z,97416.31
2023-06-21T05:48:01.677Z,97422.47
2023-06-21T05:50:31.761Z,97415.97
2023-06-21T05:52:59.666Z,97422.13
2023-06-21T05:55:26.787Z,97419.78
2023-06-21T05:57:53.536Z,97422.59
2023-06-21T06:00:20.524Z,97418.25
2023-06-21T06:02:47.412Z,97425.34
2023-06-21T06:05:15.441Z,97416.63
2023-06-21T06:07:42.390Z,97420.44
2023-06-21T06:10:10.080Z,97409.59
2023-06-21T06:12:36.977Z,97404.78
2023-06-21T06:15:04.341Z,97408.16
2023-06-21T06:17:31.516Z,97408.22
2023-06-21T06:19:58.782Z,97395.41
2023-06-21T06:22:26.286Z,97399.72
2023-06-21T06:24:53.715Z,97404.91
2023-06-21T06:27:20.485Z,97398.97
2023-06-21T06:29:47.256Z,97398.16
2023-06-21T06:32:14.206Z,97386.69
2023-06-21T06:34:41.187Z,97385.19
2023-06-21T06:37:14.511Z,97387.78
2023-06-21T06:39:42.760Z,97387.81
2023-06-21T06:42:11.657Z,97395.63
2023-06-21T06:44:38.823Z,97388.25
2023-06-21T06:47:07.770Z,97379.41
2023-06-21T06:49:35.038Z,97381.16
2023-06-21T06:52:01.771Z,97383.94
2023-06-21T06:54:28.653Z,97375.41
2023-06-21T06:56:55.592Z,97370.69
2023-06-21T06:59:23.608Z,97374.22
2023-06-21T07:01:51.226Z,97372.34
2023-06-21T07:04:18.458Z,97370.94
2023-06-21T07:06:45.476Z,97377.06
2023-06-21T07:09:12.333Z,97372.53
2023-06-21T07:11:39.486Z,97369.06
2023-06-21T07:14:06.115Z,97375.84
2023-06-21T07:16:36.736Z,97365.56
2023-06-21T07:19:06.686Z,97366.91
2023-06-21T07:21:33.874Z,97375.63
2023-06-21T07:24:00.664Z,97370.22
2023-06-21T07:26:27.685Z,97372.38
2023-06-21T07:28:54.444Z,97366.09
2023-06-21T07:31:21.386Z,97368.00
2023-06-21T07:33:50.711Z,97372.31
2023-06-21T07:36:26.086Z,97361.63
2023-06-21T07:38:53.535Z,97365.91
2023-06-21T07:41:20.593Z,97367.44
2023-06-21T07:43:47.378Z,97362.41
2023-06-21T07:46:16.016Z,97358.81
2023-06-21T07:48:43.495Z,97351.09
2023-06-21T07:51:11.347Z,97350.53
2023-06-21T07:53:38.268Z,97349.03
2023-06-21T07:56:05.803Z,97347.47
2023-06-21T07:58:32.656Z,97351.19
2023-06-21T08:00:59.420Z,97353.22
2023-06-21T08:03:26.415Z,97356.25
2023-06-21T08:05:53.110Z,97358.44
2023-06-21T08:08:21.358Z,97364.22
2023-06-21T08:10:48.205Z,97366.19
2023-06-21T08:13:18.415Z,97356.59
2023-06-21T08:15:45.728Z,97362.66
2023-06-21T08:18:12.605Z,97356.66
2023-06-21T08:20:41.914Z,97358.31
2023-06-21T08:23:09.894Z,97355.59
2023-06-21T08:25:37.330Z,97360.97
2023-06-21T08:28:04.995Z,97357.00
2023-06-21T08:30:32.127Z,97356.41
2023-06-21T08:32:58.987Z,97369.47
2023-06-21T08:35:26.050Z,97359.97
2023-06-21T08:37:57.622Z,97360.31
2023-06-21T08:40:34.787Z,97356.50
2023-06-21T08:43:02.356Z,97365.28
2023-06-21T08:45:29.606Z,97359.03
2023-06-21T08:48:02.447Z,97358.34
2023-06-21T08:50:31.039Z,97356.41
2023-06-21T08:53:04.109Z,97347.13
2023-06-21T08:55:33.198Z,97346.00
2023-06-21T08:58:16.161Z,97346.44
2023-06-21T09:00:51.378Z,97351.56
2023-06-21T09:04:00.361Z,97350.44
2023-06-21T09:06:28.440Z,97347.69
2023-06-21T09:08:55.609Z,97349.38
2023-06-21T09:11:24.052Z,97353.59
2023-06-21T09:13:54.549Z,97355.41
2023-06-21T09:16:21.752Z,97346.09
2023-06-21T09:18:49.124Z,97353.63
2023-06-21T09:21:16.971Z,97350.34
2023-06-21T09:23:45.989Z,97349.13
2023-06-21T09:26:13.113Z,97349.91
2023-06-21T09:28:40.297Z,97346.84
2023-06-21T09:31:07.298Z,97347.34
2023-06-21T09:33:34.352Z,97339.63
2023-06-21T09:36:01.450Z,97346.06
2023-06-21T09:38:32.984Z,97342.13
2023-06-21T09:41:02.725Z,97353.72
2023-06-21T09:43:29.819Z,97340.59
2023-06-21T09:45:59.841Z,97343.28
2023-06-21T09:48:27.191Z,97342.22
2023-06-21T09:50:57.342Z,97341.59
2023-06-21T09:53:25.696Z,97346.66
2023-06-21T09:55:52.699Z,97346.25
2023-06-21T09:58:19.758Z,97335.78
2023-06-21T10:00:46.571Z,97350.50
2023-06-21T10:03:14.074Z,97339.50
2023-06-21T10:05:57.227Z,97336.06
2023-06-21T10:08:33.306Z,97336.31
2023-06-21T10:11:01.440Z,97342.50
2023-06-21T10:13:29.740Z,97343.72
2023-06-21T10:15:57.631Z,97339.53
2023-06-21T10:18:25.235Z,97337.25
2023-06-21T10:20:58.484Z,97329.09
2023-06-21T10:23:32.895Z,97338.81
2023-06-21T10:26:10.141Z,97341.28
2023-06-21T10:28:38.933Z,97334.16
2023-06-21T10:31:05.966Z,97335.56
2023-06-21T10:33:35.591Z,97335.78
2023-06-21T10:36:04.415Z,97332.53
2023-06-21T10:38:45.840Z,97330.91
2023-06-21T10:41:15.505Z,97328.91
2023-06-21T10:43:44.452Z,97336.50
2023-06-21T10:46:12.751Z,97328.28
2023-06-21T10:48:41.522Z,97330.16
2023-06-21T10:51:11.388Z,97330.16
2023-06-21T10:53:40.247Z,97333.44
2023-06-21T10:56:07.123Z,97329.88
2023-06-21T10:58:34.148Z,97329.97
2023-06-21T11:01:01.412Z,97332.78
2023-06-21T11:03:28.864Z,97329.13
2023-06-21T11:05:57.719Z,97333.41
2023-06-21T11:08:32.080Z,97331.97
2023-06-21T11:11:08.182Z,97339.66
2023-06-21T11:13:37.697Z,97334.50
2023-06-21T11:16:30.892Z,97332.25
2023-06-21T11:19:00.204Z,97339.75
2023-06-21T11:21:46.619Z,97334.47
2023-06-21T11:24:17.040Z,97333.16
2023-06-21T11:26:57.223Z,97328.84
2023-06-21T11:29:26.023Z,97322.81
2023-06-21T11:32:08.583Z,97326.88
2023-06-21T11:34:35.532Z,97323.84
2023-06-21T11:37:20.721Z,97317.81
2023-06-21T11:40:00.112Z,97319.84
2023-06-21T11:42:29.222Z,97325.06
2023-06-21T11:44:56.999Z,97324.47
2023-06-21T11:47:23.899Z,97329.06
2023-06-21T11:49:59.074Z,97322.53
2023-06-21T11:52:34.617Z,97326.81
2023-06-21T11:55:14.382Z,97314.75
2023-06-21T11:57:45.526Z,97320.59
2023-06-21T12:00:13.690Z,97314.50
2023-06-21T12:02:40.824Z,97312.59
2023-06-21T12:05:08.180Z,97309.19
2023-06-21T12:07:40.498Z,97317.19
2023-06-21T12:10:08.045Z,97318.91
2023-06-21T12:12:35.267Z,97306.53
2023-06-21T12:15:02.295Z,97305.78
2023-06-21T12:17:29.466Z,97296.69
2023-06-21T12:20:03.093Z,97301.19
2023-06-21T12:22:29.862Z,97302.63
2023-06-21T12:24:56.830Z,97301.59
2023-06-21T12:27:23.538Z,97297.28
2023-06-21T12:29:53.171Z,97301.19
2023-06-21T12:32:21.903Z,97287.50
2023-06-21T12:34:49.653Z,97296.78
2023-06-21T12:37:20.664Z,97289.13
2023-06-21T12:39:54.880Z,97294.59
2023-06-21T12:42:22.197Z,97287.56
2023-06-21T12:44:49.285Z,97289.81
2023-06-21T12:47:16.452Z,97290.97
2023-06-21T12:49:48.552Z,97288.44
2023-06-21T12:52:15.471Z,97292.78
2023-06-21T12:54:58.038Z,97291.25
2023-06-21T12:57:33.090Z,97289.63
2023-06-21T13:00:00.075Z,97295.59
2023-06-21T13:02:29.831Z,97300.50
2023-06-21T13:04:57.577Z,97295.59
2023-06-21T13:07:24.595Z,97288.19
2023-06-21T13:09:51.850Z,97297.31
2023-06-21T13:12:18.855Z,97291.53
2023-06-21T13:14:45.679Z,97286.88
2023-06-21T13:17:12.542Z,97293.19
2023-06-21T13:19:40.132Z,97290.97
2023-06-21T13:22:09.960Z,97295.88
2023-06-21T13:24:36.722Z,97297.44
2023-06-21T13:27:03.610Z,97297.16
2023-06-21T13:29:31.432Z,97298.16
2023-06-21T13:31:58.752Z,97293.59
2023-06-21T13:34:25.858Z,97291.59
2023-06-21T13:36:53.105Z,97288.44
2023-06-21T13:39:20.124Z,97286.25
2023-06-21T13:41:46.947Z,97294.81
2023-06-21T13:44:14.142Z,97290.50
2023-06-21T13:46:41.178Z,97293.47
2023-06-21T13:49:08.037Z,97298.47
2023-06-21T13:51:36.490Z,97273.75
2023-06-21T13:54:03.432Z,97284.63
2023-06-21T13:56:30.845Z,97286.38
2023-06-21T13:58:57.908Z,97288.31
2023-06-21T14:01:25.011Z,97286.31
2023-06-21T14:03:53.219Z,97275.72
2023-06-21T14:06:20.736Z,97278.53
2023-06-21T14:08:48.319Z,97289.91
2023-06-21T14:11:15.466Z,97291.91
2023-06-21T14:13:42.611Z,97284.09
2023-06-21T14:16:09.820Z,97285.16
2023-06-21T14:18:47.067Z,97274.47
2023-06-21T14:21:17.468Z,97284.03
2023-06-21T14:23:44.902Z,97269.28
2023-06-21T14:26:12.687Z,97271.81
2023-06-21T14:28:42.454Z,97269.72
2023-06-21T14:31:09.874Z,97279.75
2023-06-21T14:33:37.286Z,97279.97
2023-06-21T14:36:04.432Z,97269.88
2023-06-21T14:38:32.263Z,97268.47
2023-06-21T14:41:01.286Z,97271.53
2023-06-21T14:43:28.294Z,97274.19
2023-06-21T14:45:57.896Z,97262.72
2023-06-21T14:48:25.106Z,97260.81
2023-06-21T14:50:52.302Z,97263.72
2023-06-21T14:53:19.631Z,97255.72
2023-06-21T14:55:47.040Z,97253.78
2023-06-21T14:58:14.786Z,97254.94
2023-06-21T15:00:42.109Z,97248.38
2023-06-21T15:03:09.812Z,97254.56
2023-06-21T15:05:37.593Z,97257.28
2023-06-21T15:08:05.257Z,97243.41
2023-06-21T15:10:33.666Z,97236.13
2023-06-21T15:13:02.593Z,97239.38
2023-06-21T15:15:30.502Z,97247.28
2023-06-21T15:17:59.989Z,97245.41
2023-06-21T15:20:26.951Z,97246.50
2023-06-21T15:22:56.717Z,97242.75
2023-06-21T15:25:24.865Z,97247.09
2023-06-21T15:27:52.602Z,97246.84
2023-06-21T15:30:19.783Z,97255.34
2023-06-21T15:32:46.933Z,97257.25
2023-06-21T15:35:16.441Z,97241.72
2023-06-21T15:37:43.374Z,97252.88
2023-06-21T15:40:10.649Z,97261.25
2023-06-21T15:42:40.287Z,97259.03
2023-06-21T15:45:08.605Z,97261.66
2023-06-21T15:47:35.765Z,97258.84
2023-06-21T15:50:10.106Z,97266.38
2023-06-21T15:52:38.780Z,97272.19
2023-06-21T15:55:06.460Z,97263.44
2023-06-21T15:57:34.451Z,97260.28
2023-06-21T16:00:02.934Z,97259.38
2023-06-21T16:02:30.299Z,97265.75
2023-06-21T16:04:57.289Z,97266.09
2023-06-21T16:07:24.121Z,97254.44
2023-06-21T16:09:51.484Z,97275.13
2023-06-21T16:12:18.643Z,97284.69
2023-06-21T16:14:45.600Z,97290.00
2023-06-21T16:17:14.816Z,97276.44
2023-06-21T16:19:41.693Z,97282.38
2023-06-21T16:22:08.747Z,97295.00
2023-06-21T16:24:35.864Z,97279.84
2023-06-21T16:27:03.062Z,97288.44
2023-06-21T16:29:29.927Z,97282.22
2023-06-21T16:31:56.855Z,97284.00
2023-06-21T16:34:24.035Z,97289.41
2023-06-21T16:36:51.119Z,97278.22
2023-06-21T16:39:18.476Z,97294.22
2023-06-21T16:41:45.445Z,97299.56
2023-06-21T16:44:12.238Z,97306.28
2023-06-21T16:46:41.500Z,97294.56
2023-06-21T16:49:10.882Z,97296.59
2023-06-21T16:51:37.843Z,97297.78
2023-06-21T16:54:05.164Z,97314.19
2023-06-21T16:56:31.896Z,97312.81
2023-06-21T16:58:59.030Z,97305.78
2023-06-21T17:01:26.060Z,97315.19
2023-06-21T17:03:56.148Z,97317.50
2023-06-21T17:06:25.602Z,97322.91
2023-06-21T17:08:55.783Z,97312.91
2023-06-21T17:11:24.193Z,97327.81
2023-06-21T17:13:53.994Z,97314.44
2023-06-21T17:16:21.623Z,97326.13
2023-06-21T17:18:49.752Z,97333.63
2023-06-21T17:21:16.958Z,97336.75
2023-06-21T17:23:43.933Z,97346.47
2023-06-21T17:26:10.905Z,97343.25
2023-06-21T17:28:38.280Z,97336.75
2023-06-21T17:31:05.402Z,97340.00
2023-06-21T17:33:33.335Z,97334.19
2023-06-21T17:36:00.273Z,97344.22
2023-06-21T17:38:27.662Z,97351.63
2023-06-21T17:40:54.429Z,97353.06
2023-06-21T17:43:21.301Z,97352.03
2023-06-21T17:45:48.441Z,97359.16
2023-06-21T17:48:15.382Z,97360.50
2023-06-21T17:50:42.381Z,97364.13
2023-06-21T17:53:09.390Z,97346.50
2023-06-21T17:55:36.493Z,97348.03
2023-06-21T17:58:04.420Z,97359.69
2023-06-21T18:00:32.174Z,97362.66
2023-06-21T18:02:59.262Z,97363.50
2023-06-21T18:05:27.034Z,97378.03
2023-06-21T18:07:54.443Z,97369.50
2023-06-21T18:10:21.479Z,97372.00
2023-06-21T18:12:48.455Z,97386.31
2023-06-21T18:15:15.352Z,97387.00
2023-06-21T18:17:42.294Z,97401.44
2023-06-21T18:20:10.152Z,97392.59
2023-06-21T18:22:43.005Z,97391.63
2023-06-21T18:25:10.792Z,97402.78
2023-06-21T18:27:38.182Z,97406.91
2023-06-21T18:30:08.799Z,97416.84
2023-06-21T18:32:40.636Z,97427.81
2023-06-21T18:35:10.159Z,97420.19
2023-06-21T18:37:39.598Z,97432.16
2023-06-21T18:40:08.427Z,97428.47
2023-06-21T18:42:36.007Z,97435.88
2023-06-21T18:45:02.918Z,97443.75
2023-06-21T18:47:30.297Z,97438.16
2023-06-21T18:50:00.306Z,97436.75
2023-06-21T18:52:27.590Z,97443.56
2023-06-21T18:54:57.726Z,97446.25
2023-06-21T18:57:24.883Z,97442.75
2023-06-21T18:59:51.833Z,97440.06
2023-06-21T19:02:19.250Z,97447.72
2023-06-21T19:04:46.497Z,97448.34
2023-06-21T19:07:15.841Z,97439.63
2023-06-21T19:09:43.826Z,97449.53
2023-06-21T19:12:10.933Z,97441.06
2023-06-21T19:14:38.346Z,97442.72
2023-06-21T19:17:07.679Z,97438.81
2023-06-21T19:19:34.627Z,97450.34
2023-06-21T19:22:01.922Z,97444.16
2023-06-21T19:24:29.197Z,97450.53
2023-06-21T19:26:56.199Z,97436.28
2023-06-21T19:29:23.166Z,97442.28
2023-06-21T19:31:50.669Z,97440.00
2023-06-21T19:34:19.302Z,97442.47
2023-06-21T19:36:46.358Z,97445.28
2023-06-21T19:39:13.313Z,97442.63
2023-06-21T19:41:41.306Z,97426.47
2023-06-21T19:44:08.547Z,97442.94
2023-06-21T19:46:35.980Z,97441.94
2023-06-21T19:49:03.067Z,97446.81
2023-06-21T19:51:35.056Z,97453.81
2023-06-21T19:54:02.591Z,97443.88
2023-06-21T19:56:29.880Z,97445.09
2023-06-21T19:58:58.219Z,97440.94
2023-06-21T20:01:25.761Z,97453.09
2023-06-21T20:03:55.885Z,97459.03
2023-06-21T20:06:22.880Z,97449.69
2023-06-21T20:08:49.836Z,97444.91
2023-06-21T20:11:19.774Z,97457.91
2023-06-21T20:13:47.442Z,97452.72
2023-06-21T20:16:14.432Z,97463.41
2023-06-21T20:18:41.861Z,97468.25
2023-06-21T20:21:10.880Z,97464.53
2023-06-21T20:23:38.139Z,97454.63
2023-06-21T20:26:05.106Z,97461.97
2023-06-21T20:40:44.830Z,97483.78
2023-06-21T20:43:20.039Z,97491.91
2023-06-21T20:45:58.306Z,97485.59
2023-06-21T20:48:26.149Z,97481.56
2023-06-21T20:50:53.770Z,97474.25
2023-06-21T20:53:20.445Z,97476.25
2023-06-21T20:55:48.852Z,97479.00
2023-06-21T20:58:28.810Z,97474.84
2023-06-21T21:00:59.138Z,97482.63
2023-06-21T21:03:28.201Z,97477.72
2023-06-21T21:05:56.228Z,97472.91
2023-06-21T21:08:25.987Z,97469.34
2023-06-21T21:10:56.656Z,97459.38
2023-06-21T21:13:23.596Z,97460.56
2023-06-21T21:15:51.520Z,97451.28
2023-06-21T21:18:18.798Z,97468.72
2023-06-21T21:20:48.708Z,97477.91
2023-06-21T21:23:16.084Z,97480.53
2023-06-21T21:25:43.976Z,97472.25
2023-06-21T21:28:17.865Z,97470.22
2023-06-21T21:30:47.549Z,97478.81
2023-06-21T21:33:15.015Z,97480.00
2023-06-21T21:35:45.304Z,97495.94
2023-06-21T21:38:12.744Z,97490.53
2023-06-21T21:40:39.955Z,97494.22
2023-06-21T21:43:06.978Z,97494.94
2023-06-21T21:45:36.170Z,97490.91
2023-06-21T21:48:04.220Z,97505.06
2023-06-21T21:50:31.938Z,97513.06
2023-06-21T21:52:58.812Z,97503.44
2023-06-21T21:55:30.655Z,97511.16
2023-06-21T21:58:00.762Z,97508.50
2023-06-21T22:00:28.386Z,97512.16
2023-06-21T22:02:55.678Z,97504.56
2023-06-21T22:05:23.185Z,97511.53
2023-06-21T22:07:50.950Z,97501.97
2023-06-21T22:10:36.185Z,97504.00
2023-06-21T22:13:06.975Z,97497.00
2023-06-21T22:15:34.175Z,97508.03
2023-06-21T22:18:02.766Z,97501.50
2023-06-21T22:20:31.084Z,97506.47
2023-06-21T22:22:58.857Z,97507.50
2023-06-21T22:25:26.354Z,97506.66
2023-06-21T22:27:53.834Z,97507.38
2023-06-21T22:30:20.972Z,97506.72
2023-06-21T22:32:47.921Z,97510.06
2023-06-21T22:35:15.073Z,97510.47
2023-06-21T22:37:42.296Z,97506.34
2023-06-21T22:40:10.796Z,97499.72
2023-06-21T22:42:40.779Z,97489.59
2023-06-21T22:45:08.487Z,97491.25
2023-06-21T22:47:38.469Z,97489.97
2023-06-21T22:50:10.260Z,97482.06
2023-06-21T22:52:37.495Z,97480.41
2023-06-21T22:55:05.445Z,97475.09
2023-06-21T22:57:32.567Z,97468.94
2023-06-21T23:00:00.681Z,97478.19
2023-06-21T23:02:28.191Z,97473.03
2023-06-21T23:04:55.625Z,97465.88
2023-06-21T23:07:22.609Z,97473.69
2023-06-21T23:09:49.501Z,97472.56
2023-06-21T23:12:17.128Z,97468.53
2023-06-21T23:14:44.093Z,97469.78
2023-06-21T23:17:12.731Z,97473.00
2023-06-21T23:19:48.850Z,97467.69
2023-06-21T23:22:19.949Z,97473.38
2023-06-21T23:24:52.263Z,97473.38
2023-06-21T23:27:19.639Z,97479.03
2023-06-21T23:29:47.757Z,97483.06
2023-06-21T23:32:26.040Z,97481.78
2023-06-21T23:34:53.346Z,97472.81
2023-06-21T23:37:22.157Z,97489.16
2023-06-21T23:39:55.283Z,97494.47
2023-06-21T23:42:26.012Z,97498.97
2023-06-21T23:44:54.630Z,97488.56
2023-06-21T23:47:21.859Z,97487.72
2023-06-21T23:49:49.714Z,97493.53
2023-06-21T23:52:17.334Z,97502.16
2023-06-21T23:54:44.545Z,97497.91
2023-06-21T23:57:14.795Z,97494.91
2023-06-21T23:59:42.140Z,97501.91
